Time;durP1;ratioP1;P1;durP2;ratioP2;P2;SDS_P1;SDS_P2;PMS_P1;PMS_P2;Temp;Humidity;BMP_temperature;BMP_pressure;BME280_temperature;BME280_humidity;BME280_pressure;Samples;Min_cycle;Max_cycle;Signal;HPM_P1;HPM_P2
2024/01/07 00:00:07;;;;;;;13.53;10.73;;;;;;;;;;5027452;28;20304;-54
2024/01/07 00:02:33;;;;;;;16.80;10.40;;;;;;;;;;5032443;28;20174;-54
2024/01/07 00:04:59;;;;;;;15.67;10.97;;;;;;;;;;5031512;28;20260;-53
2024/01/07 00:07:25;;;;;;;16.23;11.20;;;;;;;;;;5031292;28;20550;-54
2024/01/07 00:09:51;;;;;;;12.73;9.87;;;;;;;;;;5030808;28;20189;-54
2024/01/07 00:12:17;;;;;;;14.03;10.63;;;;;;;;;;5032191;28;20165;-54
2024/01/07 00:14:43;;;;;;;13.30;10.07;;;;;;;;;;5031657;28;20284;-54
2024/01/07 00:17:11;;;;;;;14.50;10.57;;;;;;;;;;5030669;28;20338;-53
2024/01/07 00:19:38;;;;;;;12.77;10.23;;;;;;;;;;5030404;28;20202;-54
2024/01/07 00:22:04;;;;;;;13.33;9.97;;;;;;;;;;5031323;28;20244;-54
2024/01/07 00:24:30;;;;;;;14.00;10.23;;;;;;;;;;5031428;28;20181;-53
2024/01/07 00:26:56;;;;;;;12.80;9.90;;;;;;;;;;5030075;28;20299;-54
2024/01/07 00:29:22;;;;;;;14.03;9.83;;;;;;;;;;5030766;28;20192;-54
2024/01/07 00:31:48;;;;;;;12.00;10.07;;;;;;;;;;5025213;28;20196;-56
2024/01/07 00:34:14;;;;;;;12.40;10.53;;;;;;;;;;5029290;28;20162;-53
2024/01/07 00:36:40;;;;;;;15.37;11.33;;;;;;;;;;5029411;28;20186;-53
2024/01/07 00:39:07;;;;;;;14.53;10.63;;;;;;;;;;5023974;28;20289;-54
2024/01/07 00:41:33;;;;;;;14.87;10.07;;;;;;;;;;5031241;28;20193;-54
2024/01/07 00:43:59;;;;;;;14.00;10.33;;;;;;;;;;5028900;28;20221;-55
2024/01/07 00:46:25;;;;;;;12.53;10.33;;;;;;;;;;5026379;28;20227;-55
2024/01/07 00:48:51;;;;;;;14.07;9.87;;;;;;;;;;5026516;28;20183;-55
2024/01/07 00:51:17;;;;;;;12.57;9.77;;;;;;;;;;5031113;28;20166;-55
2024/01/07 00:53:44;;;;;;;12.13;9.93;;;;;;;;;;5024209;28;20708;-55
2024/01/07 00:56:10;;;;;;;14.67;11.07;;;;;;;;;;5024226;28;20635;-56
2024/01/07 00:58:37;;;;;;;13.33;9.80;;;;;;;;;;5022485;28;20231;-55
2024/01/07 01:01:03;;;;;;;13.30;10.43;;;;;;;;;;5023340;28;20588;-55
2024/01/07 01:03:29;;;;;;;12.00;9.60;;;;;;;;;;5032460;28;20181;-55
2024/01/07 01:05:55;;;;;;;12.03;9.77;;;;;;;;;;5023463;28;20177;-55
2024/01/07 01:08:21;;;;;;;12.33;9.97;;;;;;;;;;5026952;28;20533;-55
2024/01/07 01:10:47;;;;;;;13.30;9.87;;;;;;;;;;5029356;28;20174;-56
2024/01/07 01:13:13;;;;;;;12.67;9.40;;;;;;;;;;5029130;28;20197;-55
2024/01/07 01:15:39;;;;;;;12.47;9.87;;;;;;;;;;5024279;28;20178;-55
2024/01/07 01:18:05;;;;;;;15.27;10.27;;;;;;;;;;5029311;28;20672;-55
2024/01/07 01:20:31;;;;;;;12.47;9.80;;;;;;;;;;5028584;28;20637;-54
2024/01/07 01:22:57;;;;;;;10.90;9.37;;;;;;;;;;5027070;28;20178;-56
2024/01/07 01:25:23;;;;;;;11.13;9.23;;;;;;;;;;5029387;28;20173;-55
2024/01/07 01:27:49;;;;;;;10.53;9.33;;;;;;;;;;5027468;28;20684;-55
2024/01/07 01:30:15;;;;;;;11.93;9.67;;;;;;;;;;5033472;28;20170;-55
2024/01/07 01:32:42;;;;;;;13.73;9.43;;;;;;;;;;5030048;28;20197;-55
2024/01/07 01:35:08;;;;;;;14.83;10.03;;;;;;;;;;5026419;28;20626;-55
2024/01/07 01:37:34;;;;;;;11.33;8.80;;;;;;;;;;5029285;28;20197;-55
2024/01/07 01:40:00;;;;;;;12.27;9.37;;;;;;;;;;5022848;28;20210;-54
2024/01/07 01:42:26;;;;;;;10.27;8.57;;;;;;;;;;5026618;28;20455;-55
2024/01/07 01:44:56;;;;;;;12.37;10.00;;;;;;;;;;5025796;28;20630;-55
2024/01/07 01:47:22;;;;;;;11.97;9.63;;;;;;;;;;5026999;28;20293;-55
2024/01/07 01:49:48;;;;;;;11.13;9.10;;;;;;;;;;5028070;28;20190;-56
2024/01/07 01:52:15;;;;;;;13.23;8.47;;;;;;;;;;5028036;28;20656;-55
2024/01/07 01:54:41;;;;;;;10.47;8.67;;;;;;;;;;5028090;28;20221;-57
2024/01/07 01:57:08;;;;;;;10.07;8.03;;;;;;;;;;5022993;28;20671;-57
2024/01/07 01:59:34;;;;;;;11.30;8.63;;;;;;;;;;5023532;28;20216;-58
2024/01/07 02:02:01;;;;;;;12.73;9.60;;;;;;;;;;5026694;28;20198;-57
2024/01/07 02:04:28;;;;;;;9.37;7.80;;;;;;;;;;5030303;28;20688;-57
2024/01/07 02:06:54;;;;;;;9.50;8.10;;;;;;;;;;5026385;28;20252;-57
2024/01/07 02:09:20;;;;;;;10.73;8.50;;;;;;;;;;5021704;28;20222;-57
2024/01/07 02:12:01;;;;;;;11.33;8.60;;;;;;;;;;5029547;28;20255;-57
2024/01/07 02:14:27;;;;;;;10.27;7.90;;;;;;;;;;5017026;28;20210;-57
2024/01/07 02:16:53;;;;;;;11.40;9.23;;;;;;;;;;5019388;28;20190;-57
2024/01/07 02:19:20;;;;;;;10.67;8.13;;;;;;;;;;5020220;28;20719;-57
2024/01/07 02:21:46;;;;;;;9.60;8.50;;;;;;;;;;5028073;28;20225;-57
2024/01/07 02:24:19;;;;;;;11.40;8.30;;;;;;;;;;5028015;28;20181;-57
2024/01/07 02:26:45;;;;;;;11.27;8.13;;;;;;;;;;5027773;28;20185;-57
2024/01/07 02:29:11;;;;;;;11.63;8.50;;;;;;;;;;5026848;28;20181;-57
2024/01/07 02:31:37;;;;;;;9.73;8.20;;;;;;;;;;5022632;28;20252;-57
2024/01/07 02:34:03;;;;;;;11.23;8.07;;;;;;;;;;5027255;28;20186;-57
2024/01/07 02:36:29;;;;;;;12.23;9.17;;;;;;;;;;5026927;28;20197;-57
2024/01/07 02:38:55;;;;;;;12.23;9.33;;;;;;;;;;5027627;28;20194;-57
2024/01/07 02:41:25;;;;;;;9.30;7.87;;;;;;;;;;5027677;28;20174;-57
2024/01/07 02:43:51;;;;;;;11.57;8.87;;;;;;;;;;5027341;28;20288;-57
2024/01/07 02:46:17;;;;;;;13.53;8.67;;;;;;;;;;5026208;28;20236;-57
2024/01/07 02:48:43;;;;;;;13.90;10.13;;;;;;;;;;5025752;28;20173;-57
2024/01/07 02:51:09;;;;;;;11.33;9.27;;;;;;;;;;5024536;28;20228;-57
2024/01/07 02:53:35;;;;;;;12.03;9.13;;;;;;;;;;5024709;28;20229;-57
2024/01/07 02:56:01;;;;;;;12.97;8.73;;;;;;;;;;5023451;28;20637;-57
2024/01/07 02:58:27;;;;;;;9.60;8.60;;;;;;;;;;5025279;28;20287;-57
2024/01/07 03:00:53;;;;;;;10.73;9.03;;;;;;;;;;5019186;28;20239;-57
2024/01/07 03:03:19;;;;;;;12.47;9.00;;;;;;;;;;5022079;28;20646;-57
2024/01/07 03:05:45;;;;;;;12.90;9.20;;;;;;;;;;5025147;28;20185;-55
2024/01/07 03:08:11;;;;;;;12.47;9.70;;;;;;;;;;5028358;28;20613;-55
2024/01/07 03:10:37;;;;;;;11.40;8.57;;;;;;;;;;5019820;28;20185;-54
2024/01/07 03:13:05;;;;;;;10.73;8.23;;;;;;;;;;5029318;28;20210;-54
2024/01/07 03:15:31;;;;;;;12.33;9.50;;;;;;;;;;5023568;28;20186;-55
2024/01/07 03:17:58;;;;;;;14.57;9.77;;;;;;;;;;5029310;28;20630;-55
2024/01/07 03:20:24;;;;;;;13.90;9.40;;;;;;;;;;5020716;28;20240;-54
2024/01/07 03:22:50;;;;;;;13.30;10.03;;;;;;;;;;5020296;28;20566;-55
2024/01/07 03:25:16;;;;;;;11.23;9.37;;;;;;;;;;5025351;28;20177;-55
2024/01/07 03:27:42;;;;;;;11.77;9.17;;;;;;;;;;5023313;28;20169;-55
2024/01/07 03:30:09;;;;;;;15.93;9.97;;;;;;;;;;5022222;28;20262;-54
2024/01/07 03:32:35;;;;;;;12.73;9.63;;;;;;;;;;5025373;28;20220;-55
2024/01/07 03:35:02;;;;;;;11.83;9.67;;;;;;;;;;5027076;28;20212;-55
2024/01/07 03:37:28;;;;;;;13.80;9.47;;;;;;;;;;5029102;28;20550;-56
2024/01/07 03:39:54;;;;;;;11.83;9.40;;;;;;;;;;5024971;28;20202;-54
2024/01/07 03:42:20;;;;;;;9.47;8.17;;;;;;;;;;5028434;28;20243;-55
2024/01/07 03:44:46;;;;;;;11.57;8.73;;;;;;;;;;5026725;28;20190;-54
2024/01/07 03:47:12;;;;;;;11.10;9.03;;;;;;;;;;5031229;28;20192;-55
2024/01/07 03:49:38;;;;;;;11.07;8.93;;;;;;;;;;5030238;28;20638;-55
2024/01/07 03:52:06;;;;;;;11.17;8.97;;;;;;;;;;5032426;28;20212;-54
2024/01/07 03:54:32;;;;;;;10.60;9.40;;;;;;;;;;5029484;28;20225;-56
2024/01/07 03:56:58;;;;;;;9.83;7.83;;;;;;;;;;5027617;28;20482;-54
2024/01/07 03:59:25;;;;;;;11.03;8.77;;;;;;;;;;5031349;28;20284;-56
2024/01/07 04:01:51;;;;;;;11.30;8.90;;;;;;;;;;5030144;28;20231;-55
2024/01/07 04:04:17;;;;;;;12.43;8.77;;;;;;;;;;5030413;28;20657;-56
2024/01/07 04:06:43;;;;;;;10.10;7.87;;;;;;;;;;5030605;28;20182;-54
2024/01/07 04:09:09;;;;;;;10.87;8.67;;;;;;;;;;5027692;28;20181;-55
2024/01/07 04:11:41;;;;;;;11.43;9.23;;;;;;;;;;5022915;28;20542;-56
2024/01/07 04:14:07;;;;;;;9.07;8.00;;;;;;;;;;5028522;28;20237;-54
2024/01/07 04:16:33;;;;;;;11.20;9.47;;;;;;;;;;5028956;28;20193;-54
2024/01/07 04:18:59;;;;;;;10.23;8.23;;;;;;;;;;5030528;28;20174;-55
2024/01/07 04:21:25;;;;;;;10.63;8.87;;;;;;;;;;5031149;28;20257;-55
2024/01/07 04:23:51;;;;;;;11.63;8.53;;;;;;;;;;5025687;28;20174;-55
2024/01/07 04:26:18;;;;;;;9.70;8.50;;;;;;;;;;5020640;28;20542;-54
2024/01/07 04:28:44;;;;;;;9.73;8.73;;;;;;;;;;5029298;28;20281;-54
2024/01/07 04:31:10;;;;;;;10.97;8.87;;;;;;;;;;5018230;28;20664;-55
2024/01/07 04:33:36;;;;;;;11.23;9.20;;;;;;;;;;5027836;28;20257;-54
2024/01/07 04:36:04;;;;;;;10.67;9.17;;;;;;;;;;5032908;28;20186;-55
2024/01/07 04:38:30;;;;;;;10.37;8.33;;;;;;;;;;5029989;28;20241;-54
2024/01/07 04:40:56;;;;;;;11.33;8.40;;;;;;;;;;5027662;28;20210;-55
2024/01/07 04:43:22;;;;;;;11.40;8.83;;;;;;;;;;5030336;28;20166;-54
2024/01/07 04:45:48;;;;;;;9.87;8.30;;;;;;;;;;5017291;28;20175;-55
2024/01/07 04:48:14;;;;;;;10.40;9.20;;;;;;;;;;5025687;28;20178;-55
2024/01/07 04:50:41;;;;;;;11.30;9.27;;;;;;;;;;5022782;28;20194;-54
2024/01/07 04:53:08;;;;;;;11.23;8.57;;;;;;;;;;5029103;28;20273;-54
2024/01/07 04:55:34;;;;;;;10.03;8.87;;;;;;;;;;5030450;28;20191;-56
2024/01/07 04:58:01;;;;;;;10.57;8.50;;;;;;;;;;5028729;28;20221;-54
2024/01/07 05:00:27;;;;;;;9.30;8.33;;;;;;;;;;5028538;28;20965;-55
2024/01/07 05:02:53;;;;;;;9.43;8.43;;;;;;;;;;5030308;28;20178;-53
2024/01/07 05:05:19;;;;;;;11.23;9.23;;;;;;;;;;5023884;28;20178;-53
2024/01/07 05:07:45;;;;;;;9.53;7.83;;;;;;;;;;5027957;28;20566;-55
2024/01/07 05:10:11;;;;;;;10.90;8.90;;;;;;;;;;5025392;28;20190;-55
2024/01/07 05:12:37;;;;;;;10.10;8.23;;;;;;;;;;5029599;28;20697;-54
2024/01/07 05:15:03;;;;;;;10.30;7.93;;;;;;;;;;5028151;28;20621;-55
2024/01/07 05:17:30;;;;;;;10.07;8.60;;;;;;;;;;5028774;28;20228;-55
2024/01/07 05:19:56;;;;;;;9.73;7.93;;;;;;;;;;5027756;28;20209;-55
2024/01/07 05:22:22;;;;;;;11.87;8.83;;;;;;;;;;5027905;28;20190;-54
2024/01/07 05:24:48;;;;;;;8.63;7.43;;;;;;;;;;5029786;28;20316;-54
2024/01/07 05:27:14;;;;;;;11.47;8.70;;;;;;;;;;5027949;28;20186;-54
2024/01/07 05:29:45;;;;;;;9.30;8.10;;;;;;;;;;5027273;28;20564;-54
2024/01/07 05:32:11;;;;;;;8.17;7.37;;;;;;;;;;5028782;28;20328;-54
2024/01/07 05:34:37;;;;;;;9.77;7.90;;;;;;;;;;5029586;28;20689;-53
2024/01/07 05:37:03;;;;;;;8.67;6.97;;;;;;;;;;5029365;28;20656;-57
2024/01/07 05:39:29;;;;;;;10.00;8.57;;;;;;;;;;5032429;28;20672;-53
2024/01/07 05:41:55;;;;;;;9.93;7.83;;;;;;;;;;5032012;28;20700;-53
2024/01/07 05:44:21;;;;;;;10.67;8.20;;;;;;;;;;5028158;28;20192;-53
2024/01/07 05:46:47;;;;;;;9.50;8.30;;;;;;;;;;5028803;28;20186;-53
2024/01/07 05:49:13;;;;;;;11.20;9.30;;;;;;;;;;5028810;28;20190;-53
2024/01/07 05:51:42;;;;;;;10.27;7.83;;;;;;;;;;5027587;28;20185;-53
2024/01/07 05:54:08;;;;;;;10.37;8.27;;;;;;;;;;5026876;28;20192;-53
2024/01/07 05:56:41;;;;;;;11.60;8.87;;;;;;;;;;5025727;28;20186;-52
2024/01/07 05:59:07;;;;;;;10.10;8.37;;;;;;;;;;5028338;28;20736;-53
2024/01/07 06:01:33;;;;;;;11.63;8.27;;;;;;;;;;5028088;28;20205;-57
2024/01/07 06:03:59;;;;;;;9.53;8.17;;;;;;;;;;5029041;28;20568;-57
2024/01/07 06:06:25;;;;;;;10.10;8.47;;;;;;;;;;5029244;28;20222;-56
2024/01/07 06:08:51;;;;;;;10.50;8.27;;;;;;;;;;5028833;28;20807;-57
2024/01/07 06:11:20;;;;;;;9.80;8.10;;;;;;;;;;5027834;28;20186;-57
2024/01/07 06:13:46;;;;;;;10.60;8.67;;;;;;;;;;5025939;28;20572;-57
2024/01/07 06:16:12;;;;;;;9.53;7.70;;;;;;;;;;5028122;28;20186;-57
2024/01/07 06:18:39;;;;;;;9.03;7.93;;;;;;;;;;5028631;28;20704;-56
2024/01/07 06:21:05;;;;;;;12.60;8.83;;;;;;;;;;5029004;28;20225;-54
2024/01/07 06:23:33;;;;;;;10.93;8.80;;;;;;;;;;5029311;28;20185;-55
2024/01/07 06:25:59;;;;;;;11.23;8.83;;;;;;;;;;5026397;28;20649;-55
2024/01/07 06:28:25;;;;;;;10.83;8.13;;;;;;;;;;5027523;28;20193;-56
2024/01/07 06:30:51;;;;;;;11.80;8.97;;;;;;;;;;5024126;28;20220;-53
2024/01/07 06:33:17;;;;;;;11.33;8.93;;;;;;;;;;5029210;28;20193;-54
2024/01/07 06:35:43;;;;;;;14.07;9.87;;;;;;;;;;5026864;28;20189;-54
2024/01/07 06:38:09;;;;;;;9.60;8.23;;;;;;;;;;5024588;28;20186;-54
2024/01/07 06:40:35;;;;;;;12.13;9.13;;;;;;;;;;5019085;28;20206;-54
2024/01/07 06:43:01;;;;;;;9.57;8.50;;;;;;;;;;5021604;28;20261;-53
2024/01/07 06:45:27;;;;;;;11.20;8.87;;;;;;;;;;5025575;28;20275;-54
2024/01/07 06:47:54;;;;;;;11.70;9.33;;;;;;;;;;5025654;28;20641;-54
2024/01/07 06:50:20;;;;;;;10.20;9.10;;;;;;;;;;5031254;28;20185;-54
2024/01/07 06:52:46;;;;;;;10.17;8.23;;;;;;;;;;5027689;28;20223;-54
2024/01/07 06:55:12;;;;;;;12.83;9.23;;;;;;;;;;5027605;28;20592;-54
2024/01/07 06:57:38;;;;;;;9.90;8.63;;;;;;;;;;5026766;28;20838;-53
2024/01/07 07:00:04;;;;;;;9.93;8.33;;;;;;;;;;5026284;28;20209;-55
2024/01/07 07:02:31;;;;;;;10.40;8.80;;;;;;;;;;5027492;28;20213;-53
2024/01/07 07:04:57;;;;;;;12.97;9.70;;;;;;;;;;5021497;28;20177;-54
2024/01/07 07:07:23;;;;;;;10.57;8.90;;;;;;;;;;5026832;28;20178;-54
2024/01/07 07:09:49;;;;;;;12.90;8.93;;;;;;;;;;5030617;28;20189;-53
2024/01/07 07:12:15;;;;;;;11.43;9.40;;;;;;;;;;5025323;28;20192;-54
2024/01/07 07:14:41;;;;;;;9.37;8.03;;;;;;;;;;5034118;28;20760;-54
2024/01/07 07:17:07;;;;;;;10.53;8.83;;;;;;;;;;5033182;28;20176;-55
2024/01/07 07:19:33;;;;;;;13.50;9.80;;;;;;;;;;5023572;28;20614;-53
2024/01/07 07:21:59;;;;;;;11.13;8.67;;;;;;;;;;5031904;28;20586;-54
2024/01/07 07:24:25;;;;;;;12.27;10.47;;;;;;;;;;5028764;28;20194;-53
2024/01/07 07:26:51;;;;;;;9.50;8.50;;;;;;;;;;5030284;28;20186;-54
2024/01/07 07:29:17;;;;;;;12.57;9.83;;;;;;;;;;5031069;28;20248;-53
2024/01/07 07:31:43;;;;;;;13.17;9.70;;;;;;;;;;5032806;28;20181;-54
2024/01/07 07:34:10;;;;;;;11.47;9.70;;;;;;;;;;5032346;28;20174;-54
2024/01/07 07:36:36;;;;;;;10.60;8.67;;;;;;;;;;5031598;28;20182;-54
2024/01/07 07:39:02;;;;;;;12.50;8.63;;;;;;;;;;5029569;28;20232;-53
2024/01/07 07:41:28;;;;;;;10.93;9.40;;;;;;;;;;5032235;28;20181;-54
2024/01/07 07:43:54;;;;;;;11.27;8.77;;;;;;;;;;5030102;28;20181;-53
2024/01/07 07:46:20;;;;;;;12.27;9.27;;;;;;;;;;5029457;28;20192;-55
2024/01/07 07:48:46;;;;;;;10.30;9.20;;;;;;;;;;5032323;28;20182;-54
2024/01/07 07:51:13;;;;;;;9.50;8.50;;;;;;;;;;5032476;28;20170;-54
2024/01/07 07:53:42;;;;;;;11.53;9.00;;;;;;;;;;5031219;28;20176;-54
2024/01/07 07:56:09;;;;;;;12.50;9.50;;;;;;;;;;5032447;28;20544;-53
2024/01/07 07:58:35;;;;;;;10.07;8.50;;;;;;;;;;5029516;28;20189;-54
2024/01/07 08:01:01;;;;;;;11.57;9.30;;;;;;;;;;5026462;28;20205;-54
2024/01/07 08:03:27;;;;;;;10.77;9.03;;;;;;;;;;5029229;28;20264;-53
2024/01/07 08:05:53;;;;;;;10.40;8.63;;;;;;;;;;5031204;28;20591;-52
2024/01/07 08:08:20;;;;;;;9.70;8.67;;;;;;;;;;5029143;28;20185;-53
2024/01/07 08:10:46;;;;;;;10.27;8.23;;;;;;;;;;5027860;28;20320;-53
2024/01/07 08:13:12;;;;;;;10.03;8.47;;;;;;;;;;5022856;28;20198;-53
2024/01/07 08:15:38;;;;;;;9.53;8.53;;;;;;;;;;5029503;28;20189;-53
2024/01/07 08:18:04;;;;;;;11.27;9.10;;;;;;;;;;5029298;28;20181;-52
2024/01/07 08:20:30;;;;;;;11.27;8.53;;;;;;;;;;5030859;28;20232;-52
2024/01/07 08:22:56;;;;;;;12.93;8.60;;;;;;;;;;5029978;28;20249;-52
2024/01/07 08:25:23;;;;;;;9.37;8.20;;;;;;;;;;5031342;28;20173;-52
2024/01/07 08:27:50;;;;;;;11.47;8.70;;;;;;;;;;5028205;28;20582;-53
2024/01/07 08:30:16;;;;;;;8.50;7.23;;;;;;;;;;5031455;28;20189;-54
2024/01/07 08:32:42;;;;;;;9.67;8.03;;;;;;;;;;5030557;28;20231;-53
2024/01/07 08:35:09;;;;;;;10.13;8.63;;;;;;;;;;5030465;28;20189;-53
2024/01/07 08:37:35;;;;;;;9.70;8.27;;;;;;;;;;5027101;28;20218;-55
2024/01/07 08:40:01;;;;;;;9.03;7.70;;;;;;;;;;5030147;28;20213;-53
2024/01/07 08:42:29;;;;;;;9.27;7.83;;;;;;;;;;5034079;28;20193;-53
2024/01/07 08:44:56;;;;;;;12.33;7.37;;;;;;;;;;5027825;28;20744;-53
2024/01/07 08:47:22;;;;;;;8.80;6.80;;;;;;;;;;5030021;28;20579;-54
2024/01/07 08:49:48;;;;;;;9.10;7.57;;;;;;;;;;5031493;28;20170;-53
2024/01/07 08:52:14;;;;;;;9.30;7.83;;;;;;;;;;5030833;28;20178;-53
2024/01/07 08:54:40;;;;;;;8.30;7.33;;;;;;;;;;5023243;28;20264;-53
2024/01/07 08:57:06;;;;;;;8.40;6.93;;;;;;;;;;5029941;28;20194;-56
2024/01/07 08:59:32;;;;;;;10.47;8.03;;;;;;;;;;5030764;28;20248;-58
2024/01/07 09:01:58;;;;;;;9.87;7.47;;;;;;;;;;5027861;28;20709;-57
2024/01/07 09:04:24;;;;;;;10.60;7.93;;;;;;;;;;5037029;28;20266;-56
2024/01/07 09:06:50;;;;;;;10.07;7.70;;;;;;;;;;5040600;28;20193;-56
2024/01/07 09:09:16;;;;;;;9.67;7.90;;;;;;;;;;5033265;28;20560;-57
2024/01/07 09:11:43;;;;;;;9.53;8.53;;;;;;;;;;5030703;28;20162;-57
2024/01/07 09:14:09;;;;;;;10.53;7.27;;;;;;;;;;5029475;28;20208;-57
2024/01/07 09:16:35;;;;;;;9.13;7.50;;;;;;;;;;5028626;28;20628;-57
2024/01/07 09:19:01;;;;;;;9.37;7.30;;;;;;;;;;5023843;28;20547;-56
2024/01/07 09:21:27;;;;;;;9.70;7.17;;;;;;;;;;5022242;28;20222;-56
2024/01/07 09:23:53;;;;;;;7.87;7.03;;;;;;;;;;5030551;28;20178;-56
2024/01/07 09:26:20;;;;;;;7.83;7.03;;;;;;;;;;5030155;28;20182;-56
2024/01/07 09:28:46;;;;;;;8.43;6.83;;;;;;;;;;5032652;28;20261;-56
2024/01/07 09:31:12;;;;;;;8.80;7.07;;;;;;;;;;5028778;28;20649;-56
2024/01/07 09:33:38;;;;;;;8.83;7.50;;;;;;;;;;5034397;28;20210;-57
2024/01/07 09:36:04;;;;;;;8.33;7.07;;;;;;;;;;5025062;28;20260;-58
2024/01/07 09:38:30;;;;;;;8.27;6.50;;;;;;;;;;5025890;28;20238;-58
2024/01/07 09:40:56;;;;;;;9.60;6.53;;;;;;;;;;5028650;28;20209;-57
2024/01/07 09:43:22;;;;;;;7.43;6.27;;;;;;;;;;5030837;28;20199;-56
2024/01/07 09:45:49;;;;;;;8.37;6.80;;;;;;;;;;5026238;28;20192;-57
2024/01/07 09:48:15;;;;;;;7.93;7.07;;;;;;;;;;5026691;28;20636;-58
2024/01/07 09:50:41;;;;;;;8.53;6.47;;;;;;;;;;5029476;28;20208;-57
2024/01/07 09:53:08;;;;;;;8.33;6.77;;;;;;;;;;5030742;28;20668;-56
2024/01/07 09:55:38;;;;;;;6.40;5.67;;;;;;;;;;5032032;28;20186;-56
2024/01/07 09:58:04;;;;;;;6.97;6.13;;;;;;;;;;5029846;28;20646;-56
2024/01/07 10:00:30;;;;;;;8.73;6.90;;;;;;;;;;5030036;28;20197;-56
2024/01/07 10:02:56;;;;;;;7.10;6.40;;;;;;;;;;5030343;28;20178;-56
2024/01/07 10:05:22;;;;;;;6.63;6.03;;;;;;;;;;5028512;28;20192;-54
2024/01/07 10:07:48;;;;;;;7.57;6.37;;;;;;;;;;5034399;28;20634;-53
2024/01/07 10:10:18;;;;;;;7.00;6.30;;;;;;;;;;5025549;28;20190;-53
2024/01/07 10:12:47;;;;;;;7.33;5.97;;;;;;;;;;5030179;28;20618;-54
2024/01/07 10:15:13;;;;;;;6.93;6.23;;;;;;;;;;5029558;28;20529;-53
2024/01/07 10:17:42;;;;;;;7.33;6.07;;;;;;;;;;5030433;28;20545;-54
2024/01/07 10:20:11;;;;;;;7.53;5.90;;;;;;;;;;5028696;28;20198;-53
2024/01/07 10:22:40;;;;;;;7.17;6.27;;;;;;;;;;5029361;28;20182;-53
2024/01/07 10:25:07;;;;;;;6.17;5.57;;;;;;;;;;5031140;28;20177;-53
2024/01/07 10:27:37;;;;;;;6.77;6.07;;;;;;;;;;5024288;28;20252;-54
2024/01/07 10:30:04;;;;;;;8.50;6.57;;;;;;;;;;5023266;28;20185;-55
2024/01/07 10:32:30;;;;;;;7.90;5.30;;;;;;;;;;5021145;28;20678;-53
2024/01/07 10:35:03;;;;;;;6.03;5.10;;;;;;;;;;5024595;28;20182;-52
2024/01/07 10:37:29;;;;;;;8.07;5.63;;;;;;;;;;5030031;28;20634;-53
2024/01/07 10:40:00;;;;;;;6.30;5.33;;;;;;;;;;5029386;28;20205;-53
2024/01/07 10:42:27;;;;;;;5.87;5.27;;;;;;;;;;5029771;28;20513;-52
2024/01/07 10:44:53;;;;;;;7.27;6.10;;;;;;;;;;5028629;28;20727;-53
2024/01/07 10:47:20;;;;;;;7.83;5.97;;;;;;;;;;5029707;28;20645;-52
2024/01/07 10:49:50;;;;;;;6.87;6.07;;;;;;;;;;5021287;28;20588;-52
2024/01/07 10:52:17;;;;;;;7.60;6.17;;;;;;;;;;5034705;28;20173;-53
2024/01/07 10:54:45;;;;;;;7.33;5.90;;;;;;;;;;5029745;28;20634;-53
2024/01/07 10:57:14;;;;;;;7.17;5.53;;;;;;;;;;5029223;28;20245;-51
2024/01/07 10:59:41;;;;;;;7.23;5.77;;;;;;;;;;5028318;28;20550;-51
2024/01/07 11:02:08;;;;;;;7.27;5.70;;;;;;;;;;5026393;28;20645;-52
2024/01/07 11:04:40;;;;;;;7.20;5.53;;;;;;;;;;5035558;28;20178;-52
2024/01/07 11:07:28;;;;;;;7.20;5.23;;;;;;;;;;5035672;28;20539;-53
2024/01/07 11:10:05;;;;;;;6.97;5.37;;;;;;;;;;5018381;28;20186;-53
2024/01/07 11:12:32;;;;;;;6.40;5.33;;;;;;;;;;5029134;28;20673;-51
2024/01/07 11:14:58;;;;;;;7.90;5.20;;;;;;;;;;5029450;28;20277;-53
2024/01/07 11:17:45;;;;;;;5.80;5.20;;;;;;;;;;5027989;28;20255;-53
2024/01/07 11:20:14;;;;;;;6.03;5.40;;;;;;;;;;5028053;28;20221;-52
2024/01/07 11:22:40;;;;;;;5.83;5.23;;;;;;;;;;5029883;28;20194;-52
2024/01/07 11:25:26;;;;;;;6.10;4.73;;;;;;;;;;5028724;28;20653;-51
2024/01/07 11:27:52;;;;;;;6.80;5.17;;;;;;;;;;5029286;28;20182;-53
2024/01/07 11:30:21;;;;;;;5.40;4.87;;;;;;;;;;5029173;28;20162;-53
2024/01/07 11:32:47;;;;;;;6.13;5.00;;;;;;;;;;5028373;28;20186;-53
2024/01/07 11:35:16;;;;;;;6.07;4.57;;;;;;;;;;5026822;28;20185;-53
2024/01/07 11:37:43;;;;;;;5.03;4.53;;;;;;;;;;5031346;28;20538;-53
2024/01/07 11:40:11;;;;;;;6.47;4.73;;;;;;;;;;5022575;28;20199;-53
2024/01/07 11:45:41;;;;;;;4.87;3.93;;;;;;;;;;5023859;28;20216;-53
2024/01/07 11:48:07;;;;;;;5.47;4.17;;;;;;;;;;5028393;28;20166;-53
2024/01/07 11:50:35;;;;;;;4.90;4.17;;;;;;;;;;5020606;28;20186;-53
2024/01/07 11:53:01;;;;;;;5.43;4.70;;;;;;;;;;5028148;28;20653;-53
2024/01/07 11:55:28;;;;;;;4.87;4.37;;;;;;;;;;5019154;28;20491;-52
2024/01/07 11:57:56;;;;;;;6.83;4.57;;;;;;;;;;5032334;28;20730;-53
2024/01/07 12:00:22;;;;;;;5.97;4.40;;;;;;;;;;5040161;28;20209;-53
2024/01/07 12:02:48;;;;;;;5.10;4.33;;;;;;;;;;5023297;28;20633;-53
2024/01/07 12:05:15;;;;;;;5.87;4.63;;;;;;;;;;5024209;28;20186;-53
2024/01/07 12:07:42;;;;;;;5.20;4.20;;;;;;;;;;5030919;28;20638;-54
2024/01/07 12:10:11;;;;;;;5.37;4.40;;;;;;;;;;5024861;28;20322;-53
2024/01/07 12:12:38;;;;;;;6.57;4.23;;;;;;;;;;5019662;28;20206;-53
2024/01/07 12:15:05;;;;;;;5.47;4.67;;;;;;;;;;5026716;28;20189;-53
2024/01/07 12:17:31;;;;;;;5.30;4.80;;;;;;;;;;5029005;28;20247;-53
2024/01/07 12:19:58;;;;;;;5.90;4.17;;;;;;;;;;5027462;28;20633;-54
2024/01/07 12:22:24;;;;;;;4.63;4.23;;;;;;;;;;5023406;28;20289;-53
2024/01/07 12:25:00;;;;;;;5.03;4.03;;;;;;;;;;5031179;28;20260;-54
2024/01/07 12:27:27;;;;;;;5.37;4.00;;;;;;;;;;5031821;28;20185;-56
2024/01/07 12:30:02;;;;;;;5.20;4.27;;;;;;;;;;5030859;28;20185;-56
2024/01/07 12:32:31;;;;;;;4.63;4.23;;;;;;;;;;5023911;28;20186;-56
2024/01/07 12:34:59;;;;;;;5.70;4.47;;;;;;;;;;5029915;28;20181;-56
2024/01/07 12:37:27;;;;;;;4.63;3.93;;;;;;;;;;5034317;28;20243;-56
2024/01/07 12:39:53;;;;;;;4.80;4.20;;;;;;;;;;5031311;28;20216;-56
2024/01/07 12:42:21;;;;;;;4.47;4.07;;;;;;;;;;5030664;28;20201;-56
2024/01/07 12:44:48;;;;;;;4.20;3.77;;;;;;;;;;5022536;28;20189;-56
2024/01/07 12:47:14;;;;;;;4.83;3.93;;;;;;;;;;5031621;28;20207;-55
2024/01/07 12:49:41;;;;;;;4.50;3.73;;;;;;;;;;5047695;28;20572;-55
2024/01/07 12:52:06;;;;;;;5.27;4.07;;;;;;;;;;5043028;28;20536;-56
2024/01/07 12:54:33;;;;;;;4.33;3.93;;;;;;;;;;5032097;28;20236;-55
2024/01/07 12:57:00;;;;;;;6.00;4.27;;;;;;;;;;5031655;28;20236;-56
2024/01/07 12:59:26;;;;;;;4.80;4.27;;;;;;;;;;5041312;28;20182;-55
2024/01/07 13:01:52;;;;;;;5.60;3.97;;;;;;;;;;5012189;28;20190;-55
2024/01/07 13:04:19;;;;;;;4.87;4.37;;;;;;;;;;5018163;28;20638;-56
2024/01/07 13:06:45;;;;;;;5.13;3.77;;;;;;;;;;5030502;28;20277;-56
2024/01/07 13:09:11;;;;;;;4.10;3.37;;;;;;;;;;5031600;28;20284;-56
2024/01/07 13:11:37;;;;;;;4.07;3.53;;;;;;;;;;5031697;28;20189;-55
2024/01/07 13:14:03;;;;;;;3.33;3.00;;;;;;;;;;5030737;28;20202;-56
2024/01/07 13:16:29;;;;;;;3.97;3.43;;;;;;;;;;5031030;28;20673;-55
2024/01/07 13:18:55;;;;;;;4.60;3.77;;;;;;;;;;5031141;28;20269;-56
2024/01/07 13:21:22;;;;;;;4.43;3.73;;;;;;;;;;5035401;28;20713;-56
2024/01/07 13:23:48;;;;;;;3.70;3.30;;;;;;;;;;5047089;28;20538;-56
2024/01/07 13:26:14;;;;;;;3.90;3.50;;;;;;;;;;5029841;28;20188;-56
2024/01/07 13:28:41;;;;;;;4.10;3.40;;;;;;;;;;5030637;28;20225;-55
2024/01/07 13:31:07;;;;;;;4.30;3.40;;;;;;;;;;5030981;28;20209;-55
2024/01/07 13:33:33;;;;;;;5.10;3.53;;;;;;;;;;5029167;28;20177;-56
2024/01/07 13:35:59;;;;;;;4.00;3.30;;;;;;;;;;5023194;28;20193;-56
2024/01/07 13:38:25;;;;;;;3.80;3.40;;;;;;;;;;5031404;28;20261;-55
2024/01/07 13:40:51;;;;;;;4.60;4.17;;;;;;;;;;5030692;28;20680;-55
2024/01/07 13:43:17;;;;;;;4.73;3.07;;;;;;;;;;5030393;28;20182;-55
2024/01/07 13:45:43;;;;;;;3.60;3.30;;;;;;;;;;5031592;28;20170;-55
2024/01/07 13:48:09;;;;;;;4.43;3.47;;;;;;;;;;5030461;28;20554;-55
2024/01/07 13:50:36;;;;;;;3.50;3.00;;;;;;;;;;5028312;28;20193;-55
2024/01/07 13:53:02;;;;;;;3.77;3.43;;;;;;;;;;5011248;28;20155;-56
2024/01/07 13:55:28;;;;;;;3.50;3.20;;;;;;;;;;5010884;28;20216;-56
2024/01/07 13:57:54;;;;;;;3.20;2.83;;;;;;;;;;5011186;28;20648;-55
2024/01/07 14:00:21;;;;;;;3.37;3.07;;;;;;;;;;5040141;28;20611;-55
2024/01/07 14:02:47;;;;;;;4.50;3.17;;;;;;;;;;5050851;28;20503;-56
2024/01/07 14:05:13;;;;;;;4.47;3.23;;;;;;;;;;5044188;28;20188;-56
2024/01/07 14:07:39;;;;;;;4.40;3.37;;;;;;;;;;5046644;28;20168;-55
2024/01/07 14:10:06;;;;;;;3.20;2.90;;;;;;;;;;5027527;28;20185;-55
2024/01/07 14:12:32;;;;;;;3.07;2.77;;;;;;;;;;5030485;28;20579;-55
2024/01/07 14:14:59;;;;;;;3.80;3.40;;;;;;;;;;5029915;28;20190;-55
2024/01/07 14:17:25;;;;;;;3.27;2.93;;;;;;;;;;5029193;28;20177;-56
2024/01/07 14:19:54;;;;;;;3.20;2.90;;;;;;;;;;5040101;28;20205;-55
2024/01/07 14:22:21;;;;;;;3.30;2.93;;;;;;;;;;5049889;28;20260;-55
2024/01/07 14:24:47;;;;;;;2.93;2.70;;;;;;;;;;5044013;28;20177;-56
2024/01/07 14:27:14;;;;;;;3.23;2.93;;;;;;;;;;5010364;28;20499;-56
2024/01/07 14:29:40;;;;;;;3.07;2.77;;;;;;;;;;5037561;28;20637;-56
2024/01/07 14:32:07;;;;;;;3.73;2.77;;;;;;;;;;5049772;28;20170;-55
2024/01/07 14:34:33;;;;;;;3.23;2.90;;;;;;;;;;5048183;28;20181;-56